sensor_id;sensor_type;location;lat;lon;timestamp;temperature;humidity
26599;DHT22;14240;51.064;16.612;2023-07-22T00:00:59;17.50;99.90
26599;DHT22;14240;51.064;16.612;2023-07-22T00:03:24;17.50;99.90
26599;DHT22;14240;51.064;16.612;2023-07-22T00:06:05;17.50;99.90
26599;DHT22;14240;51.064;16.612;2023-07-22T00:08:32;17.50;99.90
26599;DHT22;14240;51.064;16.612;2023-07-22T00:10:58;17.50;99.90
26599;DHT22;14240;51.064;16.612;2023-07-22T00:13:23;17.40;99.90
26599;DHT22;14240;51.064;16.612;2023-07-22T00:15:55;17.40;99.90
26599;DHT22;14240;51.064;16.612;2023-07-22T00:18:20;17.40;99.90
26599;DHT22;14240;51.064;16.612;2023-07-22T00:20:46;17.40;99.90
26599;DHT22;14240;51.064;16.612;2023-07-22T00:23:12;17.30;99.90
26599;DHT22;14240;51.064;16.612;2023-07-22T00:25:37;17.30;99.90
26599;DHT22;14240;51.064;16.612;2023-07-22T00:28:03;17.30;99.90
26599;DHT22;14240;51.064;16.612;2023-07-22T00:30:31;17.20;99.90
26599;DHT22;14240;51.064;16.612;2023-07-22T00:32:57;17.20;99.90
26599;DHT22;14240;51.064;16.612;2023-07-22T00:35:22;17.20;99.90
26599;DHT22;14240;51.064;16.612;2023-07-22T00:37:48;17.20;99.90
26599;DHT22;14240;51.064;16.612;2023-07-22T00:40:13;17.10;99.90
26599;DHT22;14240;51.064;16.612;2023-07-22T00:42:40;17.10;99.90
26599;DHT22;14240;51.064;16.612;2023-07-22T00:45:06;17.10;99.90
26599;DHT22;14240;51.064;16.612;2023-07-22T00:47:33;17.10;99.90
26599;DHT22;14240;51.064;16.612;2023-07-22T00:50:02;17.10;99.90
26599;DHT22;14240;51.064;16.612;2023-07-22T00:52:28;17.10;99.90
26599;DHT22;14240;51.064;16.612;2023-07-22T00:54:54;17.10;99.90
26599;DHT22;14240;51.064;16.612;2023-07-22T00:57:20;17.00;99.90
26599;DHT22;14240;51.064;16.612;2023-07-22T00:59:46;17.00;99.90
26599;DHT22;14240;51.064;16.612;2023-07-22T01:02:12;17.00;99.90
26599;DHT22;14240;51.064;16.612;2023-07-22T01:04:38;17.00;99.90
26599;DHT22;14240;51.064;16.612;2023-07-22T01:07:04;17.00;99.90
26599;DHT22;14240;51.064;16.612;2023-07-22T01:09:41;17.00;99.90
26599;DHT22;14240;51.064;16.612;2023-07-22T01:12:07;16.90;99.90
26599;DHT22;14240;51.064;16.612;2023-07-22T01:14:39;16.90;99.90
26599;DHT22;14240;51.064;16.612;2023-07-22T01:17:06;16.90;99.90
26599;DHT22;14240;51.064;16.612;2023-07-22T01:19:32;16.80;99.90
26599;DHT22;14240;51.064;16.612;2023-07-22T01:22:03;16.80;99.90
26599;DHT22;14240;51.064;16.612;2023-07-22T01:24:29;16.80;99.90
26599;DHT22;14240;51.064;16.612;2023-07-22T01:26:55;16.70;99.90
26599;DHT22;14240;51.064;16.612;2023-07-22T01:29:25;16.60;99.90
26599;DHT22;14240;51.064;16.612;2023-07-22T01:31:53;16.60;99.90
26599;DHT22;14240;51.064;16.612;2023-07-22T01:34:19;16.60;99.90
26599;DHT22;14240;51.064;16.612;2023-07-22T01:36:46;16.50;99.90
26599;DHT22;14240;51.064;16.612;2023-07-22T01:39:13;16.40;99.90
26599;DHT22;14240;51.064;16.612;2023-07-22T01:41:42;16.40;99.90
26599;DHT22;14240;51.064;16.612;2023-07-22T01:44:08;16.30;99.90
26599;DHT22;14240;51.064;16.612;2023-07-22T01:46:34;16.30;99.90
26599;DHT22;14240;51.064;16.612;2023-07-22T01:49:03;16.30;99.90
26599;DHT22;14240;51.064;16.612;2023-07-22T01:51:29;16.20;99.90
26599;DHT22;14240;51.064;16.612;2023-07-22T01:53:54;16.20;99.90
26599;DHT22;14240;51.064;16.612;2023-07-22T01:56:22;16.20;99.90
26599;DHT22;14240;51.064;16.612;2023-07-22T01:58:48;16.20;99.90
26599;DHT22;14240;51.064;16.612;2023-07-22T02:01:13;16.10;99.90
26599;DHT22;14240;51.064;16.612;2023-07-22T02:03:41;16.20;99.90
26599;DHT22;14240;51.064;16.612;2023-07-22T02:06:06;16.20;99.90
26599;DHT22;14240;51.064;16.612;2023-07-22T02:08:32;16.20;99.90
26599;DHT22;14240;51.064;16.612;2023-07-22T02:11:03;16.10;99.90
26599;DHT22;14240;51.064;16.612;2023-07-22T02:13:33;16.20;99.90
26599;DHT22;14240;51.064;16.612;2023-07-22T02:16:00;16.20;99.90
26599;DHT22;14240;51.064;16.612;2023-07-22T02:18:27;16.20;99.90
26599;DHT22;14240;51.064;16.612;2023-07-22T02:20:53;16.30;99.90
26599;DHT22;14240;51.064;16.612;2023-07-22T02:23:19;16.30;99.90
26599;DHT22;14240;51.064;16.612;2023-07-22T02:25:49;16.30;99.90
26599;DHT22;14240;51.064;16.612;2023-07-22T02:28:14;16.30;99.90
26599;DHT22;14240;51.064;16.612;2023-07-22T02:30:41;16.30;99.90
26599;DHT22;14240;51.064;16.612;2023-07-22T02:33:07;16.20;99.90
26599;DHT22;14240;51.064;16.612;2023-07-22T02:35:33;16.40;99.90
26599;DHT22;14240;51.064;16.612;2023-07-22T02:37:59;16.20;99.90
26599;DHT22;14240;51.064;16.612;2023-07-22T02:40:24;16.30;99.90
26599;DHT22;14240;51.064;16.612;2023-07-22T02:42:50;16.30;99.90
26599;DHT22;14240;51.064;16.612;2023-07-22T02:45:15;16.30;99.90
26599;DHT22;14240;51.064;16.612;2023-07-22T02:47:41;16.30;99.90
26599;DHT22;14240;51.064;16.612;2023-07-22T02:50:07;16.30;99.90
26599;DHT22;14240;51.064;16.612;2023-07-22T02:52:34;16.40;99.90
26599;DHT22;14240;51.064;16.612;2023-07-22T02:55:08;16.40;99.90
26599;DHT22;14240;51.064;16.612;2023-07-22T02:57:36;16.40;99.90
26599;DHT22;14240;51.064;16.612;2023-07-22T03:00:02;16.40;99.90
26599;DHT22;14240;51.064;16.612;2023-07-22T03:02:32;16.40;99.90
26599;DHT22;14240;51.064;16.612;2023-07-22T03:04:58;16.40;99.90
26599;DHT22;14240;51.064;16.612;2023-07-22T03:07:24;16.40;99.90
26599;DHT22;14240;51.064;16.612;2023-07-22T03:09:52;16.40;99.90
26599;DHT22;14240;51.064;16.612;2023-07-22T03:12:17;16.40;99.90
26599;DHT22;14240;51.064;16.612;2023-07-22T03:14:43;16.40;99.90
26599;DHT22;14240;51.064;16.612;2023-07-22T03:17:08;16.40;99.90
26599;DHT22;14240;51.064;16.612;2023-07-22T03:19:34;16.40;99.90
26599;DHT22;14240;51.064;16.612;2023-07-22T03:22:01;16.40;99.90
26599;DHT22;14240;51.064;16.612;2023-07-22T03:24:28;16.40;99.90
26599;DHT22;14240;51.064;16.612;2023-07-22T03:26:53;16.50;99.90
26599;DHT22;14240;51.064;16.612;2023-07-22T03:29:19;16.50;99.90
26599;DHT22;14240;51.064;16.612;2023-07-22T03:31:44;16.50;99.90
26599;DHT22;14240;51.064;16.612;2023-07-22T03:34:10;16.50;99.90
26599;DHT22;14240;51.064;16.612;2023-07-22T03:36:35;16.40;99.90
26599;DHT22;14240;51.064;16.612;2023-07-22T03:39:01;16.50;99.90
26599;DHT22;14240;51.064;16.612;2023-07-22T03:41:28;16.50;99.90
26599;DHT22;14240;51.064;16.612;2023-07-22T03:43:53;16.50;99.90
26599;DHT22;14240;51.064;16.612;2023-07-22T03:46:19;16.40;99.90
26599;DHT22;14240;51.064;16.612;2023-07-22T03:48:45;16.40;99.90
26599;DHT22;14240;51.064;16.612;2023-07-22T03:51:10;16.40;99.90
26599;DHT22;14240;51.064;16.612;2023-07-22T03:53:36;16.40;99.90
26599;DHT22;14240;51.064;16.612;2023-07-22T03:56:01;16.40;99.90
26599;DHT22;14240;51.064;16.612;2023-07-22T03:58:27;16.50;99.90
26599;DHT22;14240;51.064;16.612;2023-07-22T04:00:53;16.40;99.90
26599;DHT22;14240;51.064;16.612;2023-07-22T04:03:18;16.50;99.90
26599;DHT22;14240;51.064;16.612;2023-07-22T04:05:44;16.40;99.90
26599;DHT22;14240;51.064;16.612;2023-07-22T04:08:09;16.50;99.90
26599;DHT22;14240;51.064;16.612;2023-07-22T04:10:35;16.50;99.90
26599;DHT22;14240;51.064;16.612;2023-07-22T04:13:00;16.50;99.90
26599;DHT22;14240;51.064;16.612;2023-07-22T04:15:26;16.50;99.90
26599;DHT22;14240;51.064;16.612;2023-07-22T04:17:52;16.60;99.90
26599;DHT22;14240;51.064;16.612;2023-07-22T04:20:17;16.70;99.90
26599;DHT22;14240;51.064;16.612;2023-07-22T04:22:43;16.60;99.90
26599;DHT22;14240;51.064;16.612;2023-07-22T04:25:09;16.60;99.90
26599;DHT22;14240;51.064;16.612;2023-07-22T04:27:35;16.60;99.90
26599;DHT22;14240;51.064;16.612;2023-07-22T04:30:00;16.70;99.90
26599;DHT22;14240;51.064;16.612;2023-07-22T04:32:26;16.70;99.90
26599;DHT22;14240;51.064;16.612;2023-07-22T04:34:52;16.80;99.90
26599;DHT22;14240;51.064;16.612;2023-07-22T04:37:18;16.80;99.90
26599;DHT22;14240;51.064;16.612;2023-07-22T04:39:48;16.90;99.90
26599;DHT22;14240;51.064;16.612;2023-07-22T04:42:13;16.90;99.90
26599;DHT22;14240;51.064;16.612;2023-07-22T04:44:39;17.00;99.90
26599;DHT22;14240;51.064;16.612;2023-07-22T04:47:06;17.00;99.90
26599;DHT22;14240;51.064;16.612;2023-07-22T04:49:31;17.00;99.90
26599;DHT22;14240;51.064;16.612;2023-07-22T04:51:57;17.10;99.90
26599;DHT22;14240;51.064;16.612;2023-07-22T04:54:22;17.20;99.90
26599;DHT22;14240;51.064;16.612;2023-07-22T04:56:48;17.20;99.90
26599;DHT22;14240;51.064;16.612;2023-07-22T04:59:14;17.30;99.90
26599;DHT22;14240;51.064;16.612;2023-07-22T05:01:40;17.40;99.90
26599;DHT22;14240;51.064;16.612;2023-07-22T05:04:06;17.50;99.90
26599;DHT22;14240;51.064;16.612;2023-07-22T05:06:32;17.60;99.90
26599;DHT22;14240;51.064;16.612;2023-07-22T05:08:58;17.60;99.90
26599;DHT22;14240;51.064;16.612;2023-07-22T05:11:24;17.70;99.90
26599;DHT22;14240;51.064;16.612;2023-07-22T05:13:49;17.80;99.90
26599;DHT22;14240;51.064;16.612;2023-07-22T05:16:15;17.90;99.90
26599;DHT22;14240;51.064;16.612;2023-07-22T05:18:41;18.00;99.90
26599;DHT22;14240;51.064;16.612;2023-07-22T05:21:07;18.20;99.90
26599;DHT22;14240;51.064;16.612;2023-07-22T05:23:33;18.20;99.90
26599;DHT22;14240;51.064;16.612;2023-07-22T05:25:59;18.20;99.90
26599;DHT22;14240;51.064;16.612;2023-07-22T05:28:24;18.30;99.90
26599;DHT22;14240;51.064;16.612;2023-07-22T05:30:50;18.30;99.90
26599;DHT22;14240;51.064;16.612;2023-07-22T05:33:16;18.40;99.90
26599;DHT22;14240;51.064;16.612;2023-07-22T05:35:41;18.50;99.90
26599;DHT22;14240;51.064;16.612;2023-07-22T05:38:07;18.60;99.90
26599;DHT22;14240;51.064;16.612;2023-07-22T05:40:32;18.60;99.90
26599;DHT22;14240;51.064;16.612;2023-07-22T05:42:58;18.60;99.90
26599;DHT22;14240;51.064;16.612;2023-07-22T05:45:23;18.70;99.90
26599;DHT22;14240;51.064;16.612;2023-07-22T05:47:49;18.80;99.90
26599;DHT22;14240;51.064;16.612;2023-07-22T05:50:15;18.80;99.90
26599;DHT22;14240;51.064;16.612;2023-07-22T05:52:40;19.00;99.90
26599;DHT22;14240;51.064;16.612;2023-07-22T05:55:06;19.00;99.90
26599;DHT22;14240;51.064;16.612;2023-07-22T05:57:32;19.10;99.90
26599;DHT22;14240;51.064;16.612;2023-07-22T05:59:57;19.10;99.90
26599;DHT22;14240;51.064;16.612;2023-07-22T06:02:23;19.30;99.90
26599;DHT22;14240;51.064;16.612;2023-07-22T06:04:48;19.40;99.90
26599;DHT22;14240;51.064;16.612;2023-07-22T06:07:14;19.40;99.90
26599;DHT22;14240;51.064;16.612;2023-07-22T06:09:39;19.50;99.90
26599;DHT22;14240;51.064;16.612;2023-07-22T06:12:05;19.60;99.90
26599;DHT22;14240;51.064;16.612;2023-07-22T06:14:32;19.60;99.90
26599;DHT22;14240;51.064;16.612;2023-07-22T06:16:58;19.60;99.90
26599;DHT22;14240;51.064;16.612;2023-07-22T06:19:24;19.60;99.90
26599;DHT22;14240;51.064;16.612;2023-07-22T06:21:50;19.50;99.90
26599;DHT22;14240;51.064;16.612;2023-07-22T06:24:16;19.60;99.90
26599;DHT22;14240;51.064;16.612;2023-07-22T06:26:42;19.60;99.90
26599;DHT22;14240;51.064;16.612;2023-07-22T06:29:08;19.70;99.90
26599;DHT22;14240;51.064;16.612;2023-07-22T06:31:33;19.70;99.90
26599;DHT22;14240;51.064;16.612;2023-07-22T06:33:59;19.70;99.90
26599;DHT22;14240;51.064;16.612;2023-07-22T06:36:26;19.70;99.90
26599;DHT22;14240;51.064;16.612;2023-07-22T06:38:51;19.70;99.90
26599;DHT22;14240;51.064;16.612;2023-07-22T06:41:17;19.60;99.90
26599;DHT22;14240;51.064;16.612;2023-07-22T06:43:44;19.60;99.90
26599;DHT22;14240;51.064;16.612;2023-07-22T06:46:10;19.60;99.90
26599;DHT22;14240;51.064;16.612;2023-07-22T06:48:35;19.70;99.90
26599;DHT22;14240;51.064;16.612;2023-07-22T06:51:01;19.70;99.90
26599;DHT22;14240;51.064;16.612;2023-07-22T06:53:26;19.80;99.90
26599;DHT22;14240;51.064;16.612;2023-07-22T06:55:52;19.80;99.90
26599;DHT22;14240;51.064;16.612;2023-07-22T06:58:19;20.00;99.90
26599;DHT22;14240;51.064;16.612;2023-07-22T07:00:45;20.00;99.90
26599;DHT22;14240;51.064;16.612;2023-07-22T07:03:11;20.00;99.90
26599;DHT22;14240;51.064;16.612;2023-07-22T07:05:37;20.10;99.90
26599;DHT22;14240;51.064;16.612;2023-07-22T07:08:06;20.00;99.90
26599;DHT22;14240;51.064;16.612;2023-07-22T07:10:36;20.10;99.90
26599;DHT22;14240;51.064;16.612;2023-07-22T07:13:02;20.20;99.90
26599;DHT22;14240;51.064;16.612;2023-07-22T07:15:27;20.20;99.90
26599;DHT22;14240;51.064;16.612;2023-07-22T07:17:54;20.40;99.90
26599;DHT22;14240;51.064;16.612;2023-07-22T07:20:20;20.40;99.90
26599;DHT22;14240;51.064;16.612;2023-07-22T07:22:45;20.50;99.90
26599;DHT22;14240;51.064;16.612;2023-07-22T07:25:11;20.60;99.90
26599;DHT22;14240;51.064;16.612;2023-07-22T07:27:37;20.60;99.90
26599;DHT22;14240;51.064;16.612;2023-07-22T07:30:02;20.80;99.90
26599;DHT22;14240;51.064;16.612;2023-07-22T07:32:28;20.90;99.90
26599;DHT22;14240;51.064;16.612;2023-07-22T07:34:54;21.00;99.90
26599;DHT22;14240;51.064;16.612;2023-07-22T07:37:19;21.00;99.90
26599;DHT22;14240;51.064;16.612;2023-07-22T07:39:45;21.10;99.90
26599;DHT22;14240;51.064;16.612;2023-07-22T07:42:10;21.10;99.90
26599;DHT22;14240;51.064;16.612;2023-07-22T07:44:36;21.10;99.90
26599;DHT22;14240;51.064;16.612;2023-07-22T07:47:02;21.20;99.90
26599;DHT22;14240;51.064;16.612;2023-07-22T07:49:28;21.20;99.90
26599;DHT22;14240;51.064;16.612;2023-07-22T07:51:54;21.20;99.90
26599;DHT22;14240;51.064;16.612;2023-07-22T07:54:19;21.30;99.90
26599;DHT22;14240;51.064;16.612;2023-07-22T07:56:45;21.40;99.90
26599;DHT22;14240;51.064;16.612;2023-07-22T07:59:10;21.50;99.90
26599;DHT22;14240;51.064;16.612;2023-07-22T08:01:36;21.50;99.90
26599;DHT22;14240;51.064;16.612;2023-07-22T08:04:07;21.50;99.90
26599;DHT22;14240;51.064;16.612;2023-07-22T08:06:33;21.60;99.90
26599;DHT22;14240;51.064;16.612;2023-07-22T08:08:58;21.70;99.90
26599;DHT22;14240;51.064;16.612;2023-07-22T08:11:24;21.70;99.90
26599;DHT22;14240;51.064;16.612;2023-07-22T08:13:50;21.70;99.90
26599;DHT22;14240;51.064;16.612;2023-07-22T08:16:17;21.70;99.90
26599;DHT22;14240;51.064;16.612;2023-07-22T08:18:43;21.70;99.90
26599;DHT22;14240;51.064;16.612;2023-07-22T08:21:09;21.70;99.90
26599;DHT22;14240;51.064;16.612;2023-07-22T08:23:35;21.70;99.70
26599;DHT22;14240;51.064;16.612;2023-07-22T08:26:02;21.70;99.40
26599;DHT22;14240;51.064;16.612;2023-07-22T08:28:30;21.70;99.00
26599;DHT22;14240;51.064;16.612;2023-07-22T08:30:56;21.70;99.20
26599;DHT22;14240;51.064;16.612;2023-07-22T08:33:25;21.80;98.90
26599;DHT22;14240;51.064;16.612;2023-07-22T08:35:51;21.80;98.60
26599;DHT22;14240;51.064;16.612;2023-07-22T08:38:17;21.90;98.30
26599;DHT22;14240;51.064;16.612;2023-07-22T08:40:43;22.00;98.20
26599;DHT22;14240;51.064;16.612;2023-07-22T08:43:10;22.00;98.40
26599;DHT22;14240;51.064;16.612;2023-07-22T08:45:38;22.10;98.20
26599;DHT22;14240;51.064;16.612;2023-07-22T08:48:05;22.10;98.00
26599;DHT22;14240;51.064;16.612;2023-07-22T08:50:53;22.20;97.30
26599;DHT22;14240;51.064;16.612;2023-07-22T08:53:20;22.20;97.30
26599;DHT22;14240;51.064;16.612;2023-07-22T08:55:46;22.20;97.10
26599;DHT22;14240;51.064;16.612;2023-07-22T08:58:13;22.20;96.90
26599;DHT22;14240;51.064;16.612;2023-07-22T09:00:40;22.30;96.70
26599;DHT22;14240;51.064;16.612;2023-07-22T09:03:06;22.30;96.60
26599;DHT22;14240;51.064;16.612;2023-07-22T09:05:33;22.40;96.60
26599;DHT22;14240;51.064;16.612;2023-07-22T09:07:59;22.40;96.10
26599;DHT22;14240;51.064;16.612;2023-07-22T09:10:27;22.40;96.50
26599;DHT22;14240;51.064;16.612;2023-07-22T09:12:54;22.40;96.30
26599;DHT22;14240;51.064;16.612;2023-07-22T09:15:20;22.50;96.40
26599;DHT22;14240;51.064;16.612;2023-07-22T09:17:46;22.60;95.90
26599;DHT22;14240;51.064;16.612;2023-07-22T09:20:13;22.60;95.70
26599;DHT22;14240;51.064;16.612;2023-07-22T09:22:51;22.50;95.30
26599;DHT22;14240;51.064;16.612;2023-07-22T09:25:23;22.60;95.70
26599;DHT22;14240;51.064;16.612;2023-07-22T09:27:53;22.60;95.50
26599;DHT22;14240;51.064;16.612;2023-07-22T09:30:29;22.70;95.70
26599;DHT22;14240;51.064;16.612;2023-07-22T09:33:01;22.70;95.00
26599;DHT22;14240;51.064;16.612;2023-07-22T09:35:30;22.80;94.80
26599;DHT22;14240;51.064;16.612;2023-07-22T09:37:56;22.80;95.20
26599;DHT22;14240;51.064;16.612;2023-07-22T09:40:26;22.80;94.60
26599;DHT22;14240;51.064;16.612;2023-07-22T09:42:54;22.90;94.30
26599;DHT22;14240;51.064;16.612;2023-07-22T09:45:23;23.10;94.10
26599;DHT22;14240;51.064;16.612;2023-07-22T09:47:50;23.10;94.50
26599;DHT22;14240;51.064;16.612;2023-07-22T09:50:20;23.30;94.20
26599;DHT22;14240;51.064;16.612;2023-07-22T09:52:54;23.40;93.90
26599;DHT22;14240;51.064;16.612;2023-07-22T09:55:23;23.60;93.10
26599;DHT22;14240;51.064;16.612;2023-07-22T09:58:00;23.60;92.80
26599;DHT22;14240;51.064;16.612;2023-07-22T10:00:36;23.60;92.40
26599;DHT22;14240;51.064;16.612;2023-07-22T10:03:03;23.60;92.10
26599;DHT22;14240;51.064;16.612;2023-07-22T10:05:34;23.50;92.40
26599;DHT22;14240;51.064;16.612;2023-07-22T10:08:01;23.50;92.90
26599;DHT22;14240;51.064;16.612;2023-07-22T10:10:35;23.50;92.60
26599;DHT22;14240;51.064;16.612;2023-07-22T10:13:02;23.60;92.40
26599;DHT22;14240;51.064;16.612;2023-07-22T10:15:30;23.60;92.10
26599;DHT22;14240;51.064;16.612;2023-07-22T10:17:57;23.50;91.80
26599;DHT22;14240;51.064;16.612;2023-07-22T10:20:23;23.40;91.60
26599;DHT22;14240;51.064;16.612;2023-07-22T10:22:50;23.30;91.40
26599;DHT22;14240;51.064;16.612;2023-07-22T10:25:18;23.30;91.60
26599;DHT22;14240;51.064;16.612;2023-07-22T10:27:44;23.30;91.10
26599;DHT22;14240;51.064;16.612;2023-07-22T10:30:14;23.30;90.70
26599;DHT22;14240;51.064;16.612;2023-07-22T10:32:51;23.30;90.30
26599;DHT22;14240;51.064;16.612;2023-07-22T10:40:51;23.30;90.00
26599;DHT22;14240;51.064;16.612;2023-07-22T10:43:18;23.30;89.80
26599;DHT22;14240;51.064;16.612;2023-07-22T10:45:50;23.30;90.10
26599;DHT22;14240;51.064;16.612;2023-07-22T10:48:17;23.40;89.90
26599;DHT22;14240;51.064;16.612;2023-07-22T10:50:43;23.30;89.80
26599;DHT22;14240;51.064;16.612;2023-07-22T10:53:14;23.40;90.90
26599;DHT22;14240;51.064;16.612;2023-07-22T10:56:23;23.50;90.80
26599;DHT22;14240;51.064;16.612;2023-07-22T11:12:11;23.50;87.50
26599;DHT22;14240;51.064;16.612;2023-07-22T11:14:51;23.50;88.90
26599;DHT22;14240;51.064;16.612;2023-07-22T11:17:21;23.60;88.50
26599;DHT22;14240;51.064;16.612;2023-07-22T11:19:52;23.70;89.00
26599;DHT22;14240;51.064;16.612;2023-07-22T11:22:19;23.80;89.20
26599;DHT22;14240;51.064;16.612;2023-07-22T11:24:44;23.90;87.40
26599;DHT22;14240;51.064;16.612;2023-07-22T11:27:10;24.00;86.60
26599;DHT22;14240;51.064;16.612;2023-07-22T11:29:36;24.10;85.90
26599;DHT22;14240;51.064;16.612;2023-07-22T11:32:02;24.20;85.40
26599;DHT22;14240;51.064;16.612;2023-07-22T11:34:28;24.20;84.20
26599;DHT22;14240;51.064;16.612;2023-07-22T11:36:56;24.30;84.00
26599;DHT22;14240;51.064;16.612;2023-07-22T11:39:26;24.40;83.90
26599;DHT22;14240;51.064;16.612;2023-07-22T11:41:53;24.50;83.90
26599;DHT22;14240;51.064;16.612;2023-07-22T11:44:20;24.60;83.20
26599;DHT22;14240;51.064;16.612;2023-07-22T11:46:57;24.50;82.40
26599;DHT22;14240;51.064;16.612;2023-07-22T11:49:30;24.50;82.30
26599;DHT22;14240;51.064;16.612;2023-07-22T11:51:57;24.50;83.20
26599;DHT22;14240;51.064;16.612;2023-07-22T11:54:24;24.60;82.50
26599;DHT22;14240;51.064;16.612;2023-07-22T11:56:50;24.60;82.30
26599;DHT22;14240;51.064;16.612;2023-07-22T11:59:15;24.70;79.40
26599;DHT22;14240;51.064;16.612;2023-07-22T12:01:45;24.70;77.50
26599;DHT22;14240;51.064;16.612;2023-07-22T12:04:13;24.70;76.30
26599;DHT22;14240;51.064;16.612;2023-07-22T12:06:39;24.70;76.70
26599;DHT22;14240;51.064;16.612;2023-07-22T12:09:07;24.80;76.00
26599;DHT22;14240;51.064;16.612;2023-07-22T12:11:35;25.00;76.60
26599;DHT22;14240;51.064;16.612;2023-07-22T12:14:10;24.90;77.90
26599;DHT22;14240;51.064;16.612;2023-07-22T12:16:37;25.00;77.70
26599;DHT22;14240;51.064;16.612;2023-07-22T12:19:03;25.10;77.00
26599;DHT22;14240;51.064;16.612;2023-07-22T12:21:29;25.10;76.50
26599;DHT22;14240;51.064;16.612;2023-07-22T12:23:55;25.10;75.40
26599;DHT22;14240;51.064;16.612;2023-07-22T12:26:20;25.20;75.10
26599;DHT22;14240;51.064;16.612;2023-07-22T12:28:46;25.20;75.50
26599;DHT22;14240;51.064;16.612;2023-07-22T12:31:12;25.30;75.70
26599;DHT22;14240;51.064;16.612;2023-07-22T12:33:38;25.30;74.40
26599;DHT22;14240;51.064;16.612;2023-07-22T12:36:03;25.40;73.20
26599;DHT22;14240;51.064;16.612;2023-07-22T12:38:30;25.60;72.70
26599;DHT22;14240;51.064;16.612;2023-07-22T12:40:56;25.60;71.80
26599;DHT22;14240;51.064;16.612;2023-07-22T12:43:21;25.70;71.80
26599;DHT22;14240;51.064;16.612;2023-07-22T12:45:47;25.70;70.50
26599;DHT22;14240;51.064;16.612;2023-07-22T12:48:13;25.80;71.50
26599;DHT22;14240;51.064;16.612;2023-07-22T12:50:38;25.80;71.70
26599;DHT22;14240;51.064;16.612;2023-07-22T12:53:04;25.90;71.30
26599;DHT22;14240;51.064;16.612;2023-07-22T12:55:29;25.90;71.90
26599;DHT22;14240;51.064;16.612;2023-07-22T12:57:55;26.10;71.10
26599;DHT22;14240;51.064;16.612;2023-07-22T13:00:21;25.80;71.20
26599;DHT22;14240;51.064;16.612;2023-07-22T13:02:47;25.80;70.40
26599;DHT22;14240;51.064;16.612;2023-07-22T13:05:13;25.80;70.10
26599;DHT22;14240;51.064;16.612;2023-07-22T13:07:39;25.80;70.00
26599;DHT22;14240;51.064;16.612;2023-07-22T13:10:05;25.80;70.20
26599;DHT22;14240;51.064;16.612;2023-07-22T13:12:36;25.90;71.40
26599;DHT22;14240;51.064;16.612;2023-07-22T13:15:03;25.90;71.80
26599;DHT22;14240;51.064;16.612;2023-07-22T13:17:28;25.90;71.60
26599;DHT22;14240;51.064;16.612;2023-07-22T13:19:54;25.80;72.00
26599;DHT22;14240;51.064;16.612;2023-07-22T13:22:20;25.80;71.80
26599;DHT22;14240;51.064;16.612;2023-07-22T13:24:45;25.70;71.90
26599;DHT22;14240;51.064;16.612;2023-07-22T13:27:11;25.80;72.20
26599;DHT22;14240;51.064;16.612;2023-07-22T13:29:36;25.80;71.90
26599;DHT22;14240;51.064;16.612;2023-07-22T13:32:02;25.80;71.10
26599;DHT22;14240;51.064;16.612;2023-07-22T13:34:29;25.80;70.30
26599;DHT22;14240;51.064;16.612;2023-07-22T13:36:55;25.70;69.70
26599;DHT22;14240;51.064;16.612;2023-07-22T13:39:20;25.70;69.90
26599;DHT22;14240;51.064;16.612;2023-07-22T13:41:46;25.80;70.00
26599;DHT22;14240;51.064;16.612;2023-07-22T13:44:12;25.80;69.50
26599;DHT22;14240;51.064;16.612;2023-07-22T13:46:38;25.80;68.40
26599;DHT22;14240;51.064;16.612;2023-07-22T13:49:03;25.70;68.60
26599;DHT22;14240;51.064;16.612;2023-07-22T13:51:29;25.80;69.30
26599;DHT22;14240;51.064;16.612;2023-07-22T13:53:55;25.80;69.60
26599;DHT22;14240;51.064;16.612;2023-07-22T13:56:20;25.80;69.70
26599;DHT22;14240;51.064;16.612;2023-07-22T13:58:46;25.80;69.70
26599;DHT22;14240;51.064;16.612;2023-07-22T14:01:13;25.80;68.70
26599;DHT22;14240;51.064;16.612;2023-07-22T14:03:39;25.70;67.90
26599;DHT22;14240;51.064;16.612;2023-07-22T14:06:04;25.60;68.10
26599;DHT22;14240;51.064;16.612;2023-07-22T14:08:30;25.50;67.70
26599;DHT22;14240;51.064;16.612;2023-07-22T14:10:55;25.60;67.60
26599;DHT22;14240;51.064;16.612;2023-07-22T14:13:21;25.60;68.30
26599;DHT22;14240;51.064;16.612;2023-07-22T14:15:46;25.70;67.20
26599;DHT22;14240;51.064;16.612;2023-07-22T14:18:12;25.80;67.80
26599;DHT22;14240;51.064;16.612;2023-07-22T14:20:42;25.80;67.30
26599;DHT22;14240;51.064;16.612;2023-07-22T14:23:08;25.70;67.20
26599;DHT22;14240;51.064;16.612;2023-07-22T14:25:34;25.70;66.90
26599;DHT22;14240;51.064;16.612;2023-07-22T14:27:59;25.70;67.50
26599;DHT22;14240;51.064;16.612;2023-07-22T14:30:25;25.70;67.30
26599;DHT22;14240;51.064;16.612;2023-07-22T14:32:50;25.70;66.50
26599;DHT22;14240;51.064;16.612;2023-07-22T14:35:16;25.60;66.60
26599;DHT22;14240;51.064;16.612;2023-07-22T14:37:42;25.60;66.40
26599;DHT22;14240;51.064;16.612;2023-07-22T14:40:08;25.60;66.50
26599;DHT22;14240;51.064;16.612;2023-07-22T14:42:36;25.60;66.00
26599;DHT22;14240;51.064;16.612;2023-07-22T14:45:02;25.60;66.50
26599;DHT22;14240;51.064;16.612;2023-07-22T14:47:28;25.60;65.90
26599;DHT22;14240;51.064;16.612;2023-07-22T14:49:54;25.50;65.80
26599;DHT22;14240;51.064;16.612;2023-07-22T14:52:19;25.50;66.00
26599;DHT22;14240;51.064;16.612;2023-07-22T14:54:45;25.50;65.80
26599;DHT22;14240;51.064;16.612;2023-07-22T14:57:11;25.50;64.90
26599;DHT22;14240;51.064;16.612;2023-07-22T14:59:36;25.50;65.00
26599;DHT22;14240;51.064;16.612;2023-07-22T15:02:02;25.50;65.60
26599;DHT22;14240;51.064;16.612;2023-07-22T15:04:27;25.50;66.00
26599;DHT22;14240;51.064;16.612;2023-07-22T15:06:53;25.40;65.70
26599;DHT22;14240;51.064;16.612;2023-07-22T15:09:19;25.40;65.50
26599;DHT22;14240;51.064;16.612;2023-07-22T15:11:46;25.30;65.40
26599;DHT22;14240;51.064;16.612;2023-07-22T15:14:11;25.20;65.10
26599;DHT22;14240;51.064;16.612;2023-07-22T15:16:37;25.20;64.80
26599;DHT22;14240;51.064;16.612;2023-07-22T15:19:02;25.10;64.60
26599;DHT22;14240;51.064;16.612;2023-07-22T15:21:28;25.00;65.60
26599;DHT22;14240;51.064;16.612;2023-07-22T15:23:54;25.00;66.80
26599;DHT22;14240;51.064;16.612;2023-07-22T15:26:20;25.00;66.70
26599;DHT22;14240;51.064;16.612;2023-07-22T15:28:46;25.00;66.50
26599;DHT22;14240;51.064;16.612;2023-07-22T15:31:12;25.00;66.80